Time;durP1;ratioP1;P1;durP2;ratioP2;P2;SDS_P1;SDS_P2;PMS_P1;PMS_P2;Temp;Humidity;BMP_temperature;BMP_pressure;BME280_temperature;BME280_humidity;BME280_pressure;Samples;Min_cycle;Max_cycle;Signal;HPM_P1;HPM_P2
2022/07/25 00:01:09;;;;;;;9.07;4.50;;;;;;;18.97;50.78;101131.91;4990693;28;20045;-71
2022/07/25 00:03:44;;;;;;;5.93;4.75;;;;;;;18.95;50.84;101131.19;4986146;28;20426;-72
2022/07/25 00:06:20;;;;;;;6.80;4.53;;;;;;;19.08;50.57;101129.34;4993587;28;20061;-71
2022/07/25 00:08:48;;;;;;;7.93;5.53;;;;;;;19.03;50.46;101120.84;4990121;28;20033;-71
2022/07/25 00:11:20;;;;;;;7.75;4.53;;;;;;;19.14;50.23;101115.63;4996822;28;20054;-70
2022/07/25 00:13:51;;;;;;;5.82;5.20;;;;;;;19.13;49.94;101116.59;4973285;28;20724;-72
2022/07/25 00:16:20;;;;;;;6.15;5.05;;;;;;;19.14;50.18;101115.63;4993944;28;20030;-70
2022/07/25 00:18:48;;;;;;;6.88;4.72;;;;;;;19.26;49.87;101112.09;4998892;28;20049;-70
2022/07/25 00:21:13;;;;;;;5.70;4.50;;;;;;;19.34;49.91;101108.03;4995275;28;20071;-70
2022/07/25 00:23:41;;;;;;;5.30;4.55;;;;;;;19.40;49.37;101107.59;4984381;28;20042;-69
2022/07/25 00:26:18;;;;;;;8.70;4.35;;;;;;;19.35;49.44;101101.78;4993274;28;20026;-69
2022/07/25 00:28:52;;;;;;;4.88;3.80;;;;;;;19.37;49.31;101102.50;4993678;28;20056;-70
2022/07/25 00:31:20;;;;;;;7.50;4.50;;;;;;;19.38;49.48;101098.91;5008617;28;20077;-71
2022/07/25 00:33:47;;;;;;;7.65;4.95;;;;;;;19.41;49.05;101082.75;4999013;28;20041;-70
2022/07/25 00:36:18;;;;;;;7.85;5.05;;;;;;;19.42;49.03;101085.31;4990190;28;20073;-71
2022/07/25 00:38:49;;;;;;;7.38;5.18;;;;;;;19.53;48.50;101075.72;4991723;28;20034;-68
2022/07/25 00:41:16;;;;;;;9.73;5.07;;;;;;;19.54;48.63;101072.94;4990159;28;20045;-68
2022/07/25 00:43:45;;;;;;;5.03;4.30;;;;;;;19.56;48.62;101067.56;4989012;28;20046;-68
2022/07/25 00:46:15;;;;;;;6.05;5.28;;;;;;;19.53;47.93;101068.59;4994251;28;20061;-67
2022/07/25 00:48:51;;;;;;;;;;;;;;;19.45;48.26;101063.03;4984138;28;20041;-68
2022/07/25 00:51:24;;;;;;;5.68;5.07;;;;;;;19.49;48.15;101056.53;4996094;28;19917;-68
2022/07/25 00:53:50;;;;;;;9.00;5.10;;;;;;;19.48;47.74;101062.81;4981702;28;20109;-68
2022/07/25 00:56:25;;;;;;;7.78;5.50;;;;;;;19.54;47.30;101054.38;4997905;28;20033;-69
2022/07/25 00:59:03;;;;;;;5.15;4.70;;;;;;;19.57;47.67;101056.84;4967455;28;20742;-68
2022/07/25 01:01:46;;;;;;;5.22;4.72;;;;;;;19.70;47.06;101049.66;4990521;28;20068;-68
2022/07/25 01:04:25;;;;;;;8.25;4.97;;;;;;;19.65;46.74;101049.13;4997435;28;20496;-68
2022/07/25 01:06:50;;;;;;;6.32;4.40;;;;;;;19.71;47.04;101043.38;4985171;28;20172;-69
2022/07/25 01:09:26;;;;;;;5.78;5.22;;;;;;;19.69;47.02;101044.44;5008326;28;20554;-68
2022/07/25 01:11:54;;;;;;;9.15;4.55;;;;;;;19.85;46.64;101044.13;4992172;28;20033;-68
2022/07/25 01:14:24;;;;;;;6.00;5.40;;;;;;;19.82;46.10;101039.06;5000445;28;20914;-69
2022/07/25 01:16:49;;;;;;;5.78;4.82;;;;;;;19.86;46.01;101040.50;4975891;28;20049;-69
2022/07/25 01:19:22;;;;;;;7.40;6.40;;;;;;;19.89;45.38;101034.97;5009498;28;20475;-70
2022/07/25 01:21:55;;;;;;;6.38;5.47;;;;;;;19.93;45.34;101033.78;4997295;28;20141;-70
2022/07/25 01:24:25;;;;;;;9.18;6.35;;;;;;;19.76;45.46;101028.91;4994726;28;20780;-69
2022/07/25 01:26:53;;;;;;;5.88;5.38;;;;;;;19.69;45.50;101025.88;4992603;28;20046;-70
2022/07/25 01:29:25;;;;;;;7.60;5.50;;;;;;;19.67;45.74;101019.84;4995402;28;20038;-70
2022/07/25 01:31:51;;;;;;;7.82;5.93;;;;;;;19.65;45.50;101011.16;4966628;28;20590;-70
2022/07/25 01:34:19;;;;;;;6.93;5.38;;;;;;;19.63;45.43;101003.31;4996119;28;20141;-70
2022/07/25 01:36:49;;;;;;;6.55;5.90;;;;;;;19.53;45.55;101007.63;4998801;28;20037;-70
2022/07/25 01:39:15;;;;;;;9.38;6.13;;;;;;;19.55;45.60;101005.75;4984906;28;20467;-70
2022/07/25 01:41:42;;;;;;;7.32;5.07;;;;;;;19.50;45.77;100998.09;4979577;28;20038;-71
2022/07/25 01:44:08;;;;;;;6.32;5.72;;;;;;;19.49;45.78;100998.22;4996550;28;20045;-70
2022/07/25 01:46:36;;;;;;;12.15;6.30;;;;;;;19.48;45.36;101000.03;4994287;28;20041;-68
2022/07/25 01:49:04;;;;;;;6.80;6.10;;;;;;;19.42;45.79;100989.03;4996578;28;20076;-68
2022/07/25 01:51:32;;;;;;;6.93;6.20;;;;;;;19.44;45.69;100981.81;5005723;28;20229;-69
2022/07/25 01:54:11;;;;;;;9.07;5.57;;;;;;;19.45;45.50;100984.34;5004984;28;20137;-69
2022/07/25 01:56:45;;;;;;;7.05;6.32;;;;;;;19.48;45.24;100967.38;4993984;28;20410;-69
2022/07/25 01:59:13;;;;;;;7.00;6.07;;;;;;;19.46;45.16;100964.00;4995495;28;20480;-69
2022/07/25 02:01:41;;;;;;;8.95;6.43;;;;;;;19.37;45.82;100956.72;4984807;28;20040;-69
2022/07/25 02:04:19;;;;;;;;;;;;;;;;;;;;;
2022/07/25 02:06:51;;;;;;;6.32;5.72;;;;;;;19.35;45.50;100956.03;5011073;28;20491;-69
2022/07/25 02:09:38;;;;;;;8.30;6.72;;;;;;;19.39;45.03;100950.38;5012074;28;20041;-69
2022/07/25 02:12:07;;;;;;;6.97;6.28;;;;;;;19.36;45.31;100947.09;5015130;28;20049;-69
2022/07/25 02:14:42;;;;;;;9.15;7.03;;;;;;;19.25;45.44;100948.75;5016463;28;20025;-68
2022/07/25 02:17:23;;;;;;;10.30;6.68;;;;;;;19.19;45.66;100946.59;4994968;28;20044;-68
2022/07/25 02:19:54;;;;;;;12.40;7.80;;;;;;;19.30;45.09;100945.75;5015433;28;20128;-68
2022/07/25 02:22:22;;;;;;;9.40;7.03;;;;;;;19.28;45.26;100934.44;5013920;28;20075;-69
2022/07/25 02:24:57;;;;;;;7.57;6.88;;;;;;;19.27;45.09;100935.41;5002409;28;20496;-69
2022/07/25 02:27:34;;;;;;;7.78;6.22;;;;;;;19.25;45.10;100930.19;5012175;28;20044;-71
2022/07/25 02:30:03;;;;;;;9.60;7.38;;;;;;;19.26;44.97;100926.59;5013807;28;20048;-71
2022/07/25 02:32:31;;;;;;;10.60;7.00;;;;;;;19.25;44.86;100924.91;5013897;28;20507;-72
2022/07/25 02:35:21;;;;;;;7.75;6.90;;;;;;;19.20;45.07;100916.47;5013720;28;20025;-71
2022/07/25 02:37:49;;;;;;;7.63;6.80;;;;;;;19.14;45.21;100905.50;4991716;28;20623;-71
2022/07/25 02:40:17;;;;;;;10.55;7.05;;;;;;;19.01;45.63;100910.88;5015041;28;20034;-72
2022/07/25 02:42:42;;;;;;;7.70;6.65;;;;;;;18.97;45.62;100904.97;5017820;28;20716;-71
2022/07/25 02:45:08;;;;;;;6.35;5.65;;;;;;;18.92;45.99;100915.09;5017772;28;20048;-72
2022/07/25 02:47:33;;;;;;;9.65;6.55;;;;;;;18.85;45.84;100906.72;5013498;28;20042;-69
2022/07/25 02:49:59;;;;;;;10.65;7.30;;;;;;;18.86;45.95;100902.25;5000322;28;20517;-70
2022/07/25 02:52:24;;;;;;;9.63;7.57;;;;;;;18.84;45.56;100898.88;5011475;28;20052;-70
2022/07/25 02:54:50;;;;;;;10.80;7.28;;;;;;;18.81;45.95;100896.44;5001335;28;20091;-69
2022/07/25 02:57:15;;;;;;;8.88;6.35;;;;;;;18.73;46.14;100886.44;4993910;28;20118;-69
2022/07/25 02:59:41;;;;;;;8.77;6.70;;;;;;;18.80;45.62;100881.53;5013836;28;20033;-69
2022/07/25 03:02:06;;;;;;;7.57;6.78;;;;;;;18.77;46.11;100876.47;4994794;28;20041;-70
2022/07/25 03:04:32;;;;;;;12.25;7.25;;;;;;;18.77;45.40;100876.47;5015048;28;20041;-72
2022/07/25 03:06:57;;;;;;;8.38;6.30;;;;;;;18.74;45.56;100866.94;5015805;28;20049;-71
2022/07/25 03:09:23;;;;;;;7.00;6.18;;;;;;;18.81;45.25;100864.66;5017602;28;20595;-71
2022/07/25 03:11:50;;;;;;;8.18;6.22;;;;;;;18.82;45.37;100861.91;4998824;28;20068;-71
2022/07/25 03:14:16;;;;;;;7.97;6.15;;;;;;;18.90;45.08;100861.38;5016086;28;20037;-70
2022/07/25 03:16:41;;;;;;;11.35;6.60;;;;;;;18.92;45.13;100858.59;5003765;28;20387;-71
2022/07/25 03:19:09;;;;;;;9.75;6.03;;;;;;;18.92;45.06;100854.16;4996660;28;20043;-72
2022/07/25 03:21:35;;;;;;;7.53;5.38;;;;;;;18.92;44.98;100848.00;5014210;28;20521;-68
2022/07/25 03:24:01;;;;;;;8.20;6.45;;;;;;;18.87;45.28;100851.84;5002266;28;20463;-67
2022/07/25 03:26:27;;;;;;;6.57;5.65;;;;;;;18.77;45.55;100848.19;4988630;28;20036;-67
2022/07/25 03:28:52;;;;;;;8.73;6.05;;;;;;;18.69;45.52;100842.63;4963031;28;20042;-68
2022/07/25 03:31:17;;;;;;;10.10;7.40;;;;;;;18.60;45.89;100844.16;5000118;28;20124;-72
2022/07/25 03:33:43;;;;;;;8.52;6.20;;;;;;;18.61;45.67;100837.91;4994595;28;20080;-67
2022/07/25 03:36:09;;;;;;;7.68;6.40;;;;;;;18.55;45.98;100826.94;5009651;28;20395;-68
2022/07/25 03:38:35;;;;;;;7.72;6.75;;;;;;;18.50;45.95;100831.72;4994861;28;20088;-69
2022/07/25 03:41:00;;;;;;;10.63;6.18;;;;;;;18.45;46.18;100827.63;5000415;28;20064;-66
2022/07/25 03:43:26;;;;;;;5.90;5.32;;;;;;;18.45;46.26;100819.69;4993477;28;20046;-65
2022/07/25 03:45:51;;;;;;;5.72;5.20;;;;;;;18.54;46.12;100806.69;4994004;28;20249;-66
2022/07/25 03:48:16;;;;;;;7.60;5.70;;;;;;;18.48;45.91;100814.16;4994241;28;20050;-65
2022/07/25 03:50:42;;;;;;;7.30;5.53;;;;;;;18.46;46.31;100805.47;4995040;28;20045;-65
2022/07/25 03:53:07;;;;;;;11.50;6.63;;;;;;;18.45;45.95;100811.75;4993780;28;20045;-65
2022/07/25 03:55:33;;;;;;;9.45;5.50;;;;;;;18.42;46.54;100804.03;4995351;28;20454;-65
2022/07/25 03:57:58;;;;;;;5.90;5.30;;;;;;;18.37;46.32;100795.59;4992347;28;20038;-65
2022/07/25 04:00:24;;;;;;;7.55;5.90;;;;;;;18.36;46.67;100787.75;4996999;28;20041;-66
2022/07/25 04:02:49;;;;;;;10.20;6.57;;;;;;;18.35;46.33;100778.16;4991838;28;20047;-65
2022/07/25 04:05:15;;;;;;;7.82;5.35;;;;;;;18.52;46.23;100776.84;4993984;28;20131;-65
2022/07/25 04:07:40;;;;;;;7.18;6.38;;;;;;;18.71;46.14;100779.81;4993233;28;20141;-65
2022/07/25 04:10:06;;;;;;;7.35;5.43;;;;;;;18.78;45.34;100783.66;5008213;28;20117;-67
2022/07/25 04:12:32;;;;;;;9.15;7.00;;;;;;;18.89;44.92;100778.44;4993144;28;20050;-66
2022/07/25 04:14:57;;;;;;;7.90;5.45;;;;;;;19.04;44.40;100772.91;4994831;28;20033;-66
2022/07/25 04:17:23;;;;;;;6.78;5.65;;;;;;;19.26;43.56;100772.09;4995725;28;20503;-65
2022/07/25 04:19:48;;;;;;;6.93;5.22;;;;;;;19.39;43.12;100766.66;4992900;28;20084;-67
2022/07/25 04:22:14;;;;;;;7.18;5.97;;;;;;;19.44;42.91;100775.09;4996877;28;20077;-66
2022/07/25 04:24:39;;;;;;;7.43;6.28;;;;;;;19.57;42.59;100764.38;5001410;28;20088;-65
2022/07/25 04:27:05;;;;;;;7.18;5.03;;;;;;;19.69;42.66;100758.09;4994733;28;20068;-66
2022/07/25 04:29:30;;;;;;;6.50;5.90;;;;;;;19.80;42.43;100768.66;5001164;28;20430;-66
2022/07/25 04:31:56;;;;;;;6.68;6.03;;;;;;;19.87;42.44;100755.75;4994427;28;20045;-66
2022/07/25 04:34:22;;;;;;;7.97;5.90;;;;;;;19.80;42.22;100743.97;5000263;28;20451;-66
2022/07/25 04:36:47;;;;;;;7.55;5.40;;;;;;;19.86;42.32;100738.13;4997815;28;20033;-65
2022/07/25 04:39:13;;;;;;;6.65;5.85;;;;;;;19.95;42.18;100744.50;5012525;28;20113;-65
2022/07/25 04:41:38;;;;;;;6.00;5.28;;;;;;;20.02;42.18;100743.91;5000203;28;20431;-66
2022/07/25 04:44:06;;;;;;;7.18;5.03;;;;;;;19.98;42.19;100737.16;4995168;28;20886;-65
2022/07/25 04:46:31;;;;;;;5.38;4.65;;;;;;;19.98;42.15;100742.47;4997809;28;20037;-65
2022/07/25 04:48:57;;;;;;;7.60;5.32;;;;;;;20.01;41.89;100734.22;4997541;28;20029;-69
2022/07/25 04:51:22;;;;;;;5.88;5.38;;;;;;;20.04;41.71;100731.34;5000597;28;20037;-68
2022/07/25 04:53:48;;;;;;;6.78;5.63;;;;;;;19.92;41.99;100732.34;5011245;28;20053;-69
2022/07/25 04:56:14;;;;;;;7.40;4.80;;;;;;;19.92;41.79;100735.84;5013216;28;20044;-69
2022/07/25 04:58:39;;;;;;;7.35;5.30;;;;;;;19.94;42.41;100737.53;4994872;28;20041;-69
2022/07/25 05:01:06;;;;;;;6.75;5.57;;;;;;;19.84;42.50;100730.34;4994639;28;20034;-70
2022/07/25 05:03:31;;;;;;;6.53;5.20;;;;;;;19.86;42.33;100717.78;4997090;28;20069;-70
2022/07/25 05:05:57;;;;;;;6.63;5.47;;;;;;;19.94;42.31;100719.81;4995493;28;20533;-66
2022/07/25 05:08:22;;;;;;;5.63;5.13;;;;;;;20.04;42.25;100719.91;4999632;28;20144;-71
2022/07/25 05:10:48;;;;;;;8.23;4.47;;;;;;;20.16;42.30;100726.00;5000522;28;20033;-68
2022/07/25 05:13:13;;;;;;;6.25;5.65;;;;;;;20.13;42.09;100719.13;4997364;28;20419;-68
2022/07/25 05:15:39;;;;;;;5.57;4.97;;;;;;;20.28;41.65;100717.88;4994525;28;20601;-68
2022/07/25 05:18:04;;;;;;;6.00;5.40;;;;;;;20.53;41.39;100716.66;4996197;28;20083;-68
2022/07/25 05:20:30;;;;;;;5.60;5.05;;;;;;;21.77;39.59;100712.94;4999553;28;20088;-68
2022/07/25 05:22:55;;;;;;;5.57;5.00;;;;;;;23.53;35.20;100718.69;4995244;28;20570;-68
2022/07/25 05:25:21;;;;;;;9.23;5.35;;;;;;;23.52;35.68;100717.03;4993854;28;20088;-68
2022/07/25 05:27:46;;;;;;;9.63;4.75;;;;;;;23.13;35.76;100716.38;4995995;28;20107;-69
2022/07/25 05:30:13;;;;;;;6.93;6.07;;;;;;;22.79;36.31;100708.94;4998520;28;20057;-69
2022/07/25 05:32:39;;;;;;;6.00;5.28;;;;;;;22.68;36.55;100712.63;5006576;28;20209;-68
2022/07/25 05:35:07;;;;;;;7.50;5.57;;;;;;;22.51;36.68;100706.19;4995596;28;20176;-69
2022/07/25 05:37:33;;;;;;;6.28;5.65;;;;;;;22.54;37.30;100723.72;5000046;28;20041;-68
2022/07/25 05:39:59;;;;;;;11.73;6.38;;;;;;;22.77;36.31;100716.25;4992481;28;20546;-68
2022/07/25 05:42:25;;;;;;;8.00;5.88;;;;;;;23.66;35.45;100704.16;4993869;28;20041;-69
2022/07/25 05:44:50;;;;;;;7.03;5.65;;;;;;;23.80;34.75;100715.13;4994271;28;20041;-69
2022/07/25 05:47:16;;;;;;;7.00;5.57;;;;;;;25.92;31.46;100710.31;4995713;28;20044;-69
2022/07/25 05:49:41;;;;;;;6.88;5.35;;;;;;;27.51;29.53;100707.75;4995488;28;20030;-69
2022/07/25 05:52:07;;;;;;;13.10;6.35;;;;;;;26.14;30.54;100715.03;4991772;28;20082;-67
2022/07/25 05:54:33;;;;;;;8.23;6.18;;;;;;;26.33;30.39;100713.00;4994300;28;20037;-67
2022/07/25 05:56:59;;;;;;;9.70;5.55;;;;;;;27.45;28.56;100706.63;4989595;28;20407;-67
2022/07/25 05:59:25;;;;;;;10.70;6.80;;;;;;;27.32;28.54;100701.00;4995022;28;20090;-67
2022/07/25 06:01:50;;;;;;;6.95;6.13;;;;;;;26.02;30.69;100708.28;4989486;28;20145;-66
2022/07/25 06:04:16;;;;;;;7.97;6.63;;;;;;;25.05;32.05;100711.41;4994932;28;20098;-67
2022/07/25 06:06:41;;;;;;;7.90;6.55;;;;;;;24.81;33.03;100703.25;4994586;28;20037;-66
2022/07/25 06:09:07;;;;;;;7.35;6.65;;;;;;;24.71;33.19;100705.22;4993704;28;20049;-66
2022/07/25 06:11:32;;;;;;;7.70;6.53;;;;;;;24.58;33.25;100694.94;4995002;28;20049;-66
2022/07/25 06:13:58;;;;;;;15.40;8.00;;;;;;;24.72;32.96;100698.84;4994016;28;20029;-67
2022/07/25 06:16:23;;;;;;;7.05;6.18;;;;;;;25.07;32.95;100687.19;4994054;28;20045;-66
2022/07/25 06:18:49;;;;;;;9.02;7.75;;;;;;;25.17;32.62;100687.03;4992732;28;20084;-66
2022/07/25 06:21:14;;;;;;;11.95;6.25;;;;;;;25.51;32.72;100683.44;4994576;28;20498;-66
2022/07/25 06:23:40;;;;;;;6.85;6.15;;;;;;;25.17;33.29;100682.53;4990815;28;20042;-66
2022/07/25 06:26:09;;;;;;;7.60;5.93;;;;;;;25.33;32.49;100681.75;4992830;28;20406;-66
2022/07/25 06:28:36;;;;;;;13.15;7.15;;;;;;;25.70;31.47;100672.47;4995223;28;20135;-72
2022/07/25 06:31:01;;;;;;;8.77;6.75;;;;;;;25.32;32.46;100664.03;4994122;28;20048;-70
2022/07/25 06:33:27;;;;;;;10.85;6.57;;;;;;;24.75;33.44;100666.47;4994656;28;20038;-67
2022/07/25 06:35:52;;;;;;;9.20;6.97;;;;;;;25.10;33.22;100664.63;4990655;28;20688;-67
2022/07/25 06:38:18;;;;;;;7.65;6.90;;;;;;;25.58;32.10;100665.78;4996048;28;20046;-65
2022/07/25 06:40:43;;;;;;;7.95;7.15;;;;;;;25.38;32.60;100668.72;4993390;28;20025;-67
2022/07/25 06:43:09;;;;;;;5.80;5.10;;;;;;;26.56;30.87;100672.91;4994586;28;21451;-65
2022/07/25 06:45:34;;;;;;;10.30;6.53;;;;;;;27.30;30.05;100665.47;4995764;28;20048;-66
2022/07/25 06:48:00;;;;;;;11.40;6.70;;;;;;;28.00;28.90;100655.56;4989827;28;20049;-65
2022/07/25 06:50:26;;;;;;;9.63;6.80;;;;;;;28.48;28.24;100653.44;4996105;28;20042;-66
2022/07/25 06:52:53;;;;;;;6.07;4.88;;;;;;;31.36;25.17;100653.78;4991820;28;20120;-66
2022/07/25 06:55:19;;;;;;;10.60;6.38;;;;;;;32.53;22.43;100653.38;4995285;28;20032;-66
2022/07/25 06:57:45;;;;;;;7.72;5.80;;;;;;;32.59;22.37;100644.41;4991045;28;20046;-69
2022/07/25 07:00:12;;;;;;;9.95;7.22;;;;;;;30.01;24.89;100654.31;4995761;28;20431;-71
2022/07/25 07:02:48;;;;;;;7.70;5.97;;;;;;;29.15;26.87;100647.09;4990863;28;20060;-68
2022/07/25 07:05:13;;;;;;;8.40;6.90;;;;;;;29.51;26.61;100652.41;4993230;28;20029;-69
2022/07/25 07:07:39;;;;;;;8.07;6.40;;;;;;;29.44;27.16;100651.53;4991335;28;20551;-69
2022/07/25 07:10:05;;;;;;;7.03;6.22;;;;;;;28.78;28.03;100653.44;4992833;28;20041;-68
2022/07/25 07:12:30;;;;;;;9.13;6.93;;;;;;;28.90;27.58;100651.91;4992033;28;20119;-68
2022/07/25 07:14:56;;;;;;;6.32;5.22;;;;;;;28.94;27.70;100645.13;4987858;28;20031;-68
2022/07/25 07:17:21;;;;;;;6.88;6.18;;;;;;;27.72;28.91;100646.22;4993025;28;20045;-69
2022/07/25 07:19:47;;;;;;;6.78;6.05;;;;;;;26.98;30.59;100648.47;4992829;28;20097;-69
2022/07/25 07:22:12;;;;;;;10.40;7.35;;;;;;;26.43;31.40;100652.03;4993852;28;20038;-69
2022/07/25 07:24:38;;;;;;;10.30;6.53;;;;;;;26.41;31.65;100654.88;4992898;28;20041;-69
2022/07/25 07:27:03;;;;;;;9.18;6.05;;;;;;;27.39;30.30;100652.81;5007753;28;20049;-69
2022/07/25 07:29:29;;;;;;;8.02;6.10;;;;;;;28.61;27.68;100658.97;4993695;28;20061;-69
2022/07/25 07:31:54;;;;;;;7.07;5.45;;;;;;;28.90;27.96;100646.53;4991407;28;20053;-68
2022/07/25 07:34:20;;;;;;;6.15;5.65;;;;;;;29.12;27.91;100645.56;4991139;28;20043;-68
2022/07/25 07:36:45;;;;;;;7.65;5.57;;;;;;;31.12;25.54;100636.28;4980555;28;20029;-69
2022/07/25 07:39:11;;;;;;;6.65;5.90;;;;;;;31.59;24.77;100637.22;4992797;28;20025;-68
2022/07/25 07:41:37;;;;;;;6.93;4.95;;;;;;;31.89;24.41;100639.50;4987759;28;20431;-69
2022/07/25 07:44:03;;;;;;;5.78;5.22;;;;;;;32.50;23.35;100622.19;4984605;28;20052;-68
2022/07/25 07:46:29;;;;;;;6.18;5.57;;;;;;;34.24;21.39;100610.97;4991837;28;20711;-69
2022/07/25 07:48:55;;;;;;;6.63;5.47;;;;;;;33.13;22.38;100621.47;4990236;28;20034;-68
2022/07/25 07:51:21;;;;;;;4.80;4.40;;;;;;;32.75;22.77;100616.03;4992030;28;20042;-69
2022/07/25 07:56:30;;;;;;;6.65;5.13;;;;;;;32.05;24.04;100610.41;4994264;28;20130;-69
2022/07/25 07:58:58;;;;;;;8.30;4.80;;;;;;;33.43;22.70;100615.44;4991781;28;20175;-69
2022/07/25 08:01:24;;;;;;;7.13;5.03;;;;;;;35.77;19.41;100613.47;4997706;28;20526;-70
2022/07/25 08:03:49;;;;;;;7.78;5.85;;;;;;;36.57;18.45;100606.53;4995025;28;20120;-67
2022/07/25 08:06:15;;;;;;;4.88;4.47;;;;;;;36.76;18.47;100610.72;4999198;28;20034;-68
2022/07/25 08:08:40;;;;;;;5.05;4.60;;;;;;;36.08;18.41;100604.97;4995302;28;20060;-70
2022/07/25 08:11:06;;;;;;;6.03;5.53;;;;;;;35.70;19.79;100603.53;5002005;28;20072;-69
2022/07/25 08:13:33;;;;;;;5.53;3.75;;;;;;;35.64;19.30;100595.50;4994768;28;20099;-69
2022/07/25 08:16:03;;;;;;;4.85;4.45;;;;;;;35.13;19.75;100592.31;4998349;28;20041;-68
2022/07/25 08:18:31;;;;;;;5.70;4.60;;;;;;;36.64;18.23;100585.47;4994556;28;20091;-68
2022/07/25 08:20:58;;;;;;;4.82;4.25;;;;;;;36.23;18.01;100587.31;5001871;28;20047;-68
2022/07/25 08:23:26;;;;;;;4.10;3.55;;;;;;;33.52;20.57;100597.88;4992694;28;20042;-70
2022/07/25 08:25:52;;;;;;;4.90;3.90;;;;;;;33.34;21.30;100597.81;4995511;28;20129;-69
2022/07/25 08:28:18;;;;;;;6.03;3.88;;;;;;;31.97;22.74;100604.19;4999375;28;20049;-67
2022/07/25 08:30:44;;;;;;;4.95;4.18;;;;;;;31.98;23.50;100607.72;4995977;28;20383;-69
2022/07/25 08:33:12;;;;;;;6.55;4.20;;;;;;;32.25;23.53;100605.78;4990106;28;20080;-69
2022/07/25 08:35:39;;;;;;;5.10;4.68;;;;;;;30.04;25.61;100605.41;4994585;28;20100;-69
2022/07/25 08:38:10;;;;;;;6.50;4.75;;;;;;;29.28;26.45;100606.00;4992796;28;20539;-69
2022/07/25 08:40:35;;;;;;;8.07;5.20;;;;;;;29.00;27.02;100604.03;4993656;28;20034;-69
2022/07/25 08:43:03;;;;;;;7.72;5.15;;;;;;;29.81;26.61;100594.91;4990462;28;20053;-68
2022/07/25 08:45:28;;;;;;;8.30;5.10;;;;;;;29.56;26.76;100593.44;5006530;28;20037;-69
2022/07/25 08:47:55;;;;;;;6.22;4.88;;;;;;;29.20;27.29;100603.44;4987573;28;20328;-69
2022/07/25 08:50:23;;;;;;;7.88;4.60;;;;;;;29.34;26.92;100605.25;4983446;28;20438;-70
2022/07/25 08:52:50;;;;;;;6.68;4.95;;;;;;;28.48;28.88;100613.09;4990811;28;20418;-69
2022/07/25 08:55:20;;;;;;;8.40;4.70;;;;;;;28.21;29.21;100607.38;5011362;28;20030;-69
2022/07/25 08:57:47;;;;;;;11.98;5.03;;;;;;;27.66;30.13;100605.84;4983543;28;20657;-69
2022/07/25 09:00:20;;;;;;;5.38;4.35;;;;;;;28.10;29.57;100605.09;5014800;28;20045;-69
2022/07/25 09:02:56;;;;;;;7.38;4.63;;;;;;;27.93;29.47;100602.56;4990128;28;20041;-68
2022/07/25 09:05:23;;;;;;;5.63;4.53;;;;;;;26.69;31.34;100603.53;4996421;28;20236;-69
2022/07/25 09:07:50;;;;;;;6.57;5.10;;;;;;;28.06;30.05;100617.22;4983284;28;20094;-68
2022/07/25 09:10:16;;;;;;;5.20;4.80;;;;;;;30.65;25.20;100602.09;5014529;28;20056;-69
2022/07/25 09:13:00;;;;;;;9.15;5.85;;;;;;;30.42;25.22;100608.56;5004121;28;20132;-69
2022/07/25 09:15:30;;;;;;;8.20;5.65;;;;;;;28.57;27.26;100609.28;4978603;28;20827;-69
2022/07/25 09:17:58;;;;;;;7.27;5.23;;;;;;;28.16;27.71;100600.84;5009373;28;20049;-69
2022/07/25 09:20:35;;;;;;;8.93;5.43;;;;;;;27.52;28.82;100596.72;5013426;28;20640;-70
2022/07/25 09:23:00;;;;;;;6.47;5.88;;;;;;;27.03;30.15;100605.91;4996038;28;20695;-69
2022/07/25 09:25:29;;;;;;;10.30;5.03;;;;;;;27.39;30.17;100604.53;4999536;28;20112;-68
2022/07/25 09:28:11;;;;;;;12.68;4.95;;;;;;;27.54;30.29;100597.38;5010099;28;20634;-70
2022/07/25 09:30:38;;;;;;;10.10;6.32;;;;;;;26.95;30.19;100599.75;4995840;28;20035;-69
2022/07/25 09:33:04;;;;;;;8.98;5.95;;;;;;;27.54;30.01;100602.72;4991516;28;20037;-69
2022/07/25 09:35:39;;;;;;;6.38;4.97;;;;;;;28.46;29.00;100618.66;5015873;28;20029;-70
2022/07/25 09:38:12;;;;;;;8.90;5.32;;;;;;;29.34;28.78;100632.16;5009425;28;20053;-71
2022/07/25 09:40:38;;;;;;;7.13;5.88;;;;;;;28.57;29.06;100633.50;4994895;28;20139;-73
2022/07/25 09:43:04;;;;;;;10.77;5.55;;;;;;;28.05;30.02;100621.75;5008702;28;20431;-70
2022/07/25 09:45:30;;;;;;;15.65;7.03;;;;;;;27.04;30.30;100607.56;5012032;28;20037;-71
2022/07/25 09:48:00;;;;;;;13.88;6.95;;;;;;;26.41;31.83;100611.19;4993228;28;20049;-70
2022/07/25 09:50:27;;;;;;;9.27;5.90;;;;;;;27.40;31.11;100606.19;4980696;28;20037;-70
2022/07/25 09:52:55;;;;;;;9.45;7.10;;;;;;;27.41;30.44;100603.31;5008362;28;20049;-70
2022/07/25 09:55:22;;;;;;;9.77;6.63;;;;;;;26.10;32.59;100614.59;5008693;28;20068;-70
2022/07/25 09:57:48;;;;;;;7.03;6.32;;;;;;;26.24;32.40;100600.50;4998867;28;20760;-69
2022/07/25 10:00:19;;;;;;;10.88;6.70;;;;;;;26.01;33.12;100610.22;5011481;28;20044;-69
2022/07/25 10:02:53;;;;;;;6.50;5.85;;;;;;;26.07;33.07;100628.34;4989467;28;20135;-69
2022/07/25 10:05:41;;;;;;;8.10;6.53;;;;;;;25.90;34.01;100635.50;5009022;28;20037;-70
2022/07/25 10:08:07;;;;;;;10.07;6.40;;;;;;;25.75;34.41;100648.72;4989907;28;20037;-67
2022/07/25 10:10:38;;;;;;;9.52;6.40;;;;;;;26.10;34.20;100632.50;5011171;28;20642;-70
2022/07/25 10:13:12;;;;;;;10.73;6.97;;;;;;;25.73;33.39;100623.13;5006396;28;20506;-69
2022/07/25 10:15:49;;;;;;;9.13;6.43;;;;;;;25.53;34.45;100610.09;5007249;28;20105;-69
2022/07/25 10:18:18;;;;;;;8.07;6.05;;;;;;;25.97;33.96;100603.53;5005635;28;20088;-68
2022/07/25 10:20:44;;;;;;;11.77;6.30;;;;;;;26.36;33.65;100603.66;5006368;28;20536;-68
2022/07/25 10:23:36;;;;;;;8.13;5.40;;;;;;;26.72;32.92;100613.09;5010153;28;20114;-68
2022/07/25 10:26:14;;;;;;;9.73;6.72;;;;;;;25.62;34.59;100626.97;5006435;28;20053;-69
2022/07/25 10:28:47;;;;;;;9.18;6.10;;;;;;;25.53;35.42;100636.00;5008429;28;20132;-69
2022/07/25 10:31:15;;;;;;;10.52;5.28;;;;;;;25.62;35.35;100626.97;4979943;28;20033;-67
2022/07/25 10:33:42;;;;;;;5.78;4.90;;;;;;;25.23;35.95;100631.06;5009972;28;20034;-67
2022/07/25 10:36:09;;;;;;;7.38;5.32;;;;;;;25.33;35.24;100625.59;5012254;28;20056;-69
2022/07/25 10:38:39;;;;;;;10.30;5.40;;;;;;;25.57;35.65;100624.78;5009423;28;20053;-68
2022/07/25 10:41:07;;;;;;;12.48;6.45;;;;;;;25.13;35.19;100629.53;5010755;28;20099;-68
2022/07/25 10:43:38;;;;;;;7.57;5.72;;;;;;;25.48;35.27;100631.09;5010640;28;20144;-67
2022/07/25 10:46:18;;;;;;;13.52;5.72;;;;;;;25.35;35.45;100638.78;5012530;28;20390;-68
2022/07/25 10:48:44;;;;;;;7.72;5.25;;;;;;;25.32;35.41;100642.63;5009223;28;20136;-67
2022/07/25 10:51:12;;;;;;;9.18;6.00;;;;;;;25.37;35.40;100634.94;5009908;28;21827;-68
2022/07/25 10:53:42;;;;;;;6.90;4.93;;;;;;;25.68;34.13;100628.97;5008041;28;20057;-68
2022/07/25 10:56:19;;;;;;;7.60;3.60;;;;;;;25.68;33.65;100628.97;5011679;28;20053;-68
2022/07/25 10:58:51;;;;;;;4.75;4.18;;;;;;;26.35;32.54;100630.59;5009544;28;20041;-67
2022/07/25 11:01:32;;;;;;;6.30;4.57;;;;;;;27.04;31.04;100617.44;5009259;28;20572;-67
2022/07/25 11:04:00;;;;;;;9.27;4.65;;;;;;;27.87;29.16;100618.56;5006612;28;20041;-68
2022/07/25 11:06:37;;;;;;;4.93;3.70;;;;;;;27.75;29.96;100636.97;4978883;28;20076;-68
2022/07/25 11:09:13;;;;;;;8.55;4.38;;;;;;;27.74;29.96;100635.28;5005545;28;20462;-68
2022/07/25 11:11:47;;;;;;;5.25;3.97;;;;;;;27.49;30.85;100643.50;4987966;28;20040;-68
2022/07/25 11:14:15;;;;;;;4.90;3.75;;;;;;;27.00;31.61;100638.41;5006871;28;20970;-68
2022/07/25 11:16:42;;;;;;;6.47;4.35;;;;;;;26.44;32.49;100648.34;5007966;28;20041;-68
2022/07/25 11:19:16;;;;;;;4.93;3.55;;;;;;;26.02;33.45;100646.69;4994810;28;20147;-68
2022/07/25 11:21:44;;;;;;;5.57;3.83;;;;;;;25.82;33.16;100655.09;5008701;28;20037;-67
2022/07/25 11:24:09;;;;;;;7.65;3.83;;;;;;;25.68;34.23;100661.09;5010022;28;22162;-68
2022/07/25 11:26:47;;;;;;;6.95;3.97;;;;;;;25.33;34.93;100668.38;5010317;28;20052;-68
2022/07/25 11:29:23;;;;;;;4.05;3.63;;;;;;;25.47;35.22;100669.59;5010605;28;20062;-67
2022/07/25 11:32:09;;;;;;;4.40;4.00;;;;;;;25.22;34.41;100663.34;5008236;28;20580;-67
2022/07/25 11:34:37;;;;;;;4.78;3.35;;;;;;;24.93;33.89;100658.34;5009088;28;20025;-68